createdAt,value
2019-03-12T00:02:26.345Z,1.30
2019-03-12T00:04:54.789Z,1.20
2019-03-12T00:07:23.279Z,1.20
2019-03-12T00:09:53.808Z,1.20
2019-03-12T00:12:22.077Z,1.20
2019-03-12T00:14:50.507Z,1.20
2019-03-12T00:17:23.857Z,1.20
2019-03-12T00:19:52.349Z,1.20
2019-03-12T00:22:21.013Z,1.20
2019-03-12T00:24:49.474Z,1.20
2019-03-12T00:27:17.986Z,1.20
2019-03-12T00:29:46.463Z,1.30
2019-03-12T00:32:14.892Z,1.30
2019-03-12T00:34:43.349Z,1.30
2019-03-12T00:37:11.897Z,1.20
2019-03-12T00:39:40.476Z,1.30
2019-03-12T00:42:09.004Z,1.30
2019-03-12T00:44:37.664Z,1.30
2019-03-12T00:47:06.093Z,1.20
2019-03-12T00:49:34.575Z,1.30
2019-03-12T00:52:03.054Z,1.20
2019-03-12T00:54:31.554Z,1.30
2019-03-12T00:57:00.046Z,1.30
2019-03-12T00:59:28.493Z,1.30
2019-03-12T01:01:57.017Z,1.30
2019-03-12T01:04:25.482Z,1.30
2019-03-12T01:06:53.986Z,1.30
2019-03-12T01:09:22.531Z,1.30
2019-03-12T01:11:50.986Z,1.30
2019-03-12T01:14:19.458Z,1.20
2019-03-12T01:16:47.894Z,1.30
2019-03-12T01:19:36.610Z,1.30
2019-03-12T01:22:05.097Z,1.30
2019-03-12T01:24:33.561Z,1.30
2019-03-12T01:27:01.997Z,1.40
2019-03-12T01:29:30.429Z,1.40
2019-03-12T01:31:58.939Z,1.30
2019-03-12T01:34:27.370Z,1.30
2019-03-12T01:36:55.830Z,1.30
2019-03-12T01:39:24.266Z,1.30
2019-03-12T01:41:52.729Z,1.30
2019-03-12T01:44:21.181Z,1.30
2019-03-12T01:46:49.653Z,1.30
2019-03-12T01:49:18.111Z,1.20
2019-03-12T01:51:46.573Z,1.20
2019-03-12T01:54:15.037Z,1.20
2019-03-12T01:56:43.572Z,1.20
2019-03-12T01:59:12.144Z,1.20
2019-03-12T02:01:40.706Z,1.20
2019-03-12T02:04:09.157Z,1.20
2019-03-12T02:06:37.585Z,1.20
2019-03-12T02:09:07.653Z,1.30
2019-03-12T02:11:36.086Z,1.20
2019-03-12T02:14:21.713Z,1.30
2019-03-12T02:16:50.152Z,1.30
2019-03-12T02:19:18.610Z,1.30
2019-03-12T02:21:47.111Z,1.30
2019-03-12T02:24:15.586Z,1.30
2019-03-12T02:26:44.077Z,1.30
2019-03-12T02:29:12.533Z,1.30
2019-03-12T02:31:40.987Z,1.30
2019-03-12T02:34:09.524Z,1.40
2019-03-12T02:36:38.050Z,1.40
2019-03-12T02:39:07.553Z,1.40
2019-03-12T02:41:36.047Z,1.40
2019-03-12T02:44:04.654Z,1.40
2019-03-12T02:46:33.189Z,1.40
2019-03-12T02:49:01.619Z,1.40
2019-03-12T02:51:30.048Z,1.40
2019-03-12T02:53:58.558Z,1.40
2019-03-12T02:56:26.985Z,1.40
2019-03-12T02:58:55.522Z,1.40
2019-03-12T03:01:23.951Z,1.40
2019-03-12T03:03:52.414Z,1.40
2019-03-12T03:06:22.513Z,1.50
2019-03-12T03:08:50.938Z,1.50
2019-03-12T03:11:19.399Z,1.50
2019-03-12T03:13:47.829Z,1.40
2019-03-12T03:16:16.287Z,1.40
2019-03-12T03:18:44.755Z,1.50
2019-03-12T03:21:13.185Z,1.40
2019-03-12T03:23:41.638Z,1.40
2019-03-12T03:26:10.118Z,1.40
2019-03-12T03:28:38.549Z,1.40
2019-03-12T03:31:07.030Z,1.40
2019-03-12T03:33:35.518Z,1.40
2019-03-12T03:36:04.049Z,1.40
2019-03-12T03:38:32.502Z,1.40
2019-03-12T03:41:00.939Z,1.40
2019-03-12T03:43:29.463Z,1.40
2019-03-12T03:45:57.932Z,1.40
2019-03-12T03:48:26.387Z,1.30
2019-03-12T03:50:54.827Z,1.40
2019-03-12T03:53:23.302Z,1.40
2019-03-12T03:55:51.761Z,1.30
2019-03-12T03:58:20.203Z,1.20
2019-03-12T04:00:48.649Z,1.20
2019-03-12T04:03:17.119Z,1.10
2019-03-12T04:05:45.727Z,1.10
2019-03-12T04:08:14.177Z,1.00
2019-03-12T04:10:42.659Z,1.00
2019-03-12T04:13:11.082Z,1.00
2019-03-12T04:15:39.691Z,0.90
2019-03-12T04:18:08.144Z,0.90
2019-03-12T04:20:36.590Z,0.90
2019-03-12T04:23:05.047Z,0.90
2019-03-12T04:25:33.483Z,0.90
2019-03-12T04:28:02.558Z,0.90
2019-03-12T04:30:31.016Z,0.90
2019-03-12T04:32:59.446Z,1.00
2019-03-12T04:35:30.047Z,1.00
2019-03-12T04:37:58.496Z,1.00
2019-03-12T04:40:26.924Z,1.00
2019-03-12T04:42:55.375Z,1.00
2019-03-12T04:45:23.953Z,1.00
2019-03-12T04:47:52.412Z,1.00
2019-03-12T04:50:20.921Z,1.00
2019-03-12T04:52:49.382Z,1.00
2019-03-12T04:55:17.882Z,1.00
2019-03-12T04:57:46.337Z,1.00
2019-03-12T05:00:22.620Z,1.00
2019-03-12T05:02:51.086Z,1.10
2019-03-12T05:05:19.524Z,1.10
2019-03-12T05:07:47.953Z,1.10
2019-03-12T05:10:16.743Z,1.00
2019-03-12T05:12:45.262Z,1.00
2019-03-12T05:15:16.266Z,1.10
2019-03-12T05:17:45.677Z,1.10
2019-03-12T05:20:15.429Z,1.10
2019-03-12T05:22:44.081Z,1.10
2019-03-12T05:25:13.860Z,1.00
2019-03-12T05:27:42.618Z,1.10
2019-03-12T05:30:16.981Z,1.10
2019-03-12T05:32:45.486Z,1.10
2019-03-12T05:35:14.275Z,1.10
2019-03-12T05:37:42.712Z,1.10
2019-03-12T05:40:13.032Z,1.10
2019-03-12T05:42:41.522Z,1.10
2019-03-12T05:45:14.438Z,1.10
2019-03-12T05:47:42.873Z,1.10
2019-03-12T05:50:18.129Z,1.20
2019-03-12T05:52:49.220Z,1.20
2019-03-12T05:55:17.373Z,1.20
2019-03-12T05:57:45.943Z,1.20
2019-03-12T06:00:25.190Z,1.20
2019-03-12T06:03:13.018Z,1.20
2019-03-12T06:05:41.446Z,1.20
2019-03-12T06:08:09.878Z,1.20
2019-03-12T06:10:38.333Z,1.30
2019-03-12T06:13:06.766Z,1.30
2019-03-12T06:15:35.233Z,1.30
2019-03-12T06:18:03.667Z,1.30
2019-03-12T06:20:32.119Z,1.30
2019-03-12T06:23:01.994Z,1.40
2019-03-12T06:25:30.430Z,1.30
2019-03-12T06:27:58.894Z,1.30
2019-03-12T06:30:28.970Z,1.40
2019-03-12T06:32:59.072Z,1.60
2019-03-12T06:35:34.917Z,1.60
2019-03-12T06:38:05.017Z,1.70
2019-03-12T06:40:47.279Z,1.60
2019-03-12T06:43:23.196Z,1.70
2019-03-12T06:45:53.423Z,1.70
2019-03-12T06:48:26.574Z,1.70
2019-03-12T06:50:59.506Z,1.70
2019-03-12T06:53:38.840Z,1.90
2019-03-12T06:56:24.219Z,1.90
2019-03-12T06:59:02.877Z,2.00
2019-03-12T07:01:48.198Z,2.10
2019-03-12T07:04:24.084Z,2.10
2019-03-12T07:07:06.944Z,2.00
2019-03-12T07:09:43.234Z,2.00
2019-03-12T07:12:19.030Z,2.30
2019-03-12T07:15:07.208Z,2.60
2019-03-12T07:17:45.588Z,2.70
2019-03-12T07:20:31.527Z,2.70
2019-03-12T07:23:03.826Z,2.50
2019-03-12T07:25:36.410Z,2.40
2019-03-12T07:28:18.586Z,2.20
2019-03-12T07:31:04.090Z,2.10
2019-03-12T07:33:50.354Z,1.90
2019-03-12T07:36:26.552Z,2.00
2019-03-12T07:38:56.645Z,2.10
2019-03-12T07:41:32.257Z,2.10
2019-03-12T07:44:10.554Z,2.10
2019-03-12T07:46:40.656Z,2.20
2019-03-12T07:49:16.447Z,2.20
2019-03-12T07:51:52.210Z,2.20
2019-03-12T07:54:22.286Z,2.30
2019-03-12T07:56:57.946Z,2.30
2019-03-12T07:59:46.414Z,2.30
2019-03-12T08:02:31.302Z,2.30
2019-03-12T08:05:03.700Z,2.40
2019-03-12T08:07:36.211Z,2.50
2019-03-12T08:10:15.717Z,2.60
2019-03-12T08:12:45.857Z,2.60
2019-03-12T08:15:32.041Z,2.60
2019-03-12T08:18:14.166Z,2.50
2019-03-12T08:20:44.262Z,2.50
2019-03-12T08:23:16.994Z,2.50
2019-03-12T08:25:49.802Z,2.50
2019-03-12T08:28:34.501Z,2.50
2019-03-12T08:31:20.715Z,2.70
2019-03-12T08:33:51.273Z,2.80
2019-03-12T08:36:21.414Z,2.90
2019-03-12T08:38:54.218Z,2.90
2019-03-12T08:41:26.995Z,3.20
2019-03-12T08:44:08.774Z,3.30
2019-03-12T08:46:50.574Z,3.40
2019-03-12T08:49:29.418Z,3.60
2019-03-12T08:52:14.137Z,3.90
2019-03-12T08:55:03.962Z,4.50
2019-03-12T08:57:39.819Z,4.40
2019-03-12T09:00:24.131Z,4.50
2019-03-12T09:03:12.252Z,4.70
2019-03-12T09:05:45.135Z,4.50
2019-03-12T09:08:24.009Z,4.10
2019-03-12T09:11:01.130Z,3.90
2019-03-12T09:13:39.930Z,4.00
2019-03-12T09:16:10.021Z,4.40
2019-03-12T09:18:43.143Z,4.40
2019-03-12T09:21:29.731Z,4.50
2019-03-12T09:24:05.854Z,4.50
2019-03-12T09:26:35.958Z,4.50
2019-03-12T09:29:08.439Z,4.70
2019-03-12T09:31:41.732Z,4.90
2019-03-12T09:34:11.800Z,5.10
2019-03-12T09:36:54.250Z,5.20
2019-03-12T09:39:33.409Z,4.80
2019-03-12T09:42:12.530Z,4.60
2019-03-12T09:44:59.124Z,4.40
2019-03-12T09:47:29.390Z,4.20
2019-03-12T09:50:02.380Z,4.20
2019-03-12T09:52:35.231Z,4.10
2019-03-12T09:55:06.068Z,4.40
2019-03-12T09:57:38.893Z,4.50
2019-03-12T10:00:16.532Z,4.70
2019-03-12T10:02:47.095Z,4.80
2019-03-12T10:05:20.171Z,5.00
2019-03-12T10:07:50.241Z,4.90
2019-03-12T10:10:35.514Z,5.10
2019-03-12T10:13:21.022Z,5.30
2019-03-12T10:15:56.686Z,5.20
2019-03-12T10:18:26.782Z,5.30
2019-03-12T10:21:05.642Z,5.80
2019-03-12T10:23:38.771Z,6.20
2019-03-12T10:26:21.179Z,6.30
2019-03-12T10:29:02.502Z,6.50
2019-03-12T10:31:32.670Z,6.70
2019-03-12T10:34:05.723Z,6.70
2019-03-12T10:36:35.815Z,6.70
2019-03-12T10:39:45.581Z,6.50
2019-03-12T10:42:15.654Z,6.10
2019-03-12T10:44:45.749Z,6.10
2019-03-12T10:47:15.826Z,6.30
2019-03-12T10:49:44.285Z,6.50
2019-03-12T10:52:12.745Z,6.90
2019-03-12T10:54:41.190Z,6.90
2019-03-12T10:57:09.624Z,6.70
2019-03-12T10:59:38.152Z,6.30
2019-03-12T11:02:07.017Z,6.00
2019-03-12T11:04:35.479Z,6.20
2019-03-12T11:07:15.839Z,6.10
2019-03-12T11:09:34.165Z,6.00
2019-03-12T11:12:02.638Z,5.90
2019-03-12T11:14:31.130Z,5.90
2019-03-12T11:16:59.595Z,6.00
2019-03-12T11:19:28.106Z,6.10
2019-03-12T11:21:56.574Z,6.50
2019-03-12T11:24:25.018Z,6.80
2019-03-12T11:26:53.551Z,7.10
2019-03-12T11:29:21.986Z,7.20
2019-03-12T11:31:50.455Z,7.30
2019-03-12T11:34:18.894Z,7.40
2019-03-12T11:36:47.357Z,7.20
2019-03-12T11:39:15.971Z,7.00
2019-03-12T11:41:44.623Z,7.30
2019-03-12T11:44:13.229Z,7.40
2019-03-12T11:46:45.289Z,7.20
2019-03-12T11:49:12.033Z,7.10
2019-03-12T11:51:40.459Z,7.10
2019-03-12T11:54:09.144Z,7.00
2019-03-12T11:56:37.796Z,6.70
2019-03-12T11:59:06.384Z,6.80
2019-03-12T12:01:34.817Z,6.80
2019-03-12T12:04:05.149Z,7.10
2019-03-12T12:06:33.626Z,7.10
2019-03-12T12:09:02.097Z,6.90
2019-03-12T12:11:30.594Z,6.80
2019-03-12T12:13:59.134Z,6.70
2019-03-12T12:16:27.589Z,6.90
2019-03-12T12:18:56.051Z,6.90
2019-03-12T12:21:24.518Z,6.80
2019-03-12T12:23:52.950Z,6.50
2019-03-12T12:26:21.395Z,6.40
2019-03-12T12:28:49.831Z,6.30
2019-03-12T12:31:18.292Z,6.40
2019-03-12T12:33:46.718Z,6.50
2019-03-12T12:36:15.179Z,6.60
2019-03-12T12:38:43.708Z,6.50
2019-03-12T12:41:12.190Z,6.50
2019-03-12T12:43:40.644Z,6.70
2019-03-12T12:46:09.110Z,6.70
2019-03-12T12:48:37.568Z,6.70
2019-03-12T12:51:06.003Z,6.80
2019-03-12T12:53:34.925Z,6.70
2019-03-12T12:56:03.369Z,6.70
2019-03-12T12:58:31.837Z,6.50
2019-03-12T13:01:00.338Z,6.60
2019-03-12T13:03:28.774Z,6.70
2019-03-12T13:05:57.234Z,6.80
2019-03-12T13:08:25.670Z,6.80
2019-03-12T13:10:54.122Z,6.80
2019-03-12T13:13:22.566Z,6.90
2019-03-12T13:15:51.013Z,6.80
2019-03-12T13:18:19.452Z,6.60
2019-03-12T13:20:47.909Z,6.50
2019-03-12T13:23:16.346Z,6.50
2019-03-12T13:25:44.802Z,6.50
2019-03-12T13:28:13.255Z,6.40
2019-03-12T13:30:41.709Z,6.30
2019-03-12T13:33:10.150Z,6.50
2019-03-12T13:35:38.611Z,6.60
2019-03-12T13:38:07.278Z,6.70
2019-03-12T13:40:35.742Z,6.60
2019-03-12T13:43:04.346Z,6.60
2019-03-12T13:45:33.085Z,6.60
2019-03-12T13:48:01.753Z,6.60
2019-03-12T13:50:30.622Z,6.80
2019-03-12T13:52:59.144Z,7.00
2019-03-12T13:55:27.669Z,7.00
2019-03-12T13:57:56.181Z,6.80
2019-03-12T14:00:28.154Z,6.60
2019-03-12T14:02:56.759Z,6.50
2019-03-12T14:05:25.189Z,6.30
2019-03-12T14:07:53.662Z,6.30
2019-03-12T14:10:26.020Z,6.40
2019-03-12T14:12:57.971Z,6.40
2019-03-12T14:15:33.528Z,6.40
2019-03-12T14:18:02.262Z,6.50
2019-03-12T14:20:41.440Z,6.50
2019-03-12T14:23:27.609Z,6.50
2019-03-12T14:25:56.278Z,6.50
2019-03-12T14:28:24.711Z,6.50
2019-03-12T14:30:53.239Z,6.40
2019-03-12T14:33:21.742Z,6.40
2019-03-12T14:35:52.185Z,6.50
2019-03-12T14:38:20.586Z,6.50
2019-03-12T14:40:49.050Z,6.50
2019-03-12T14:43:17.828Z,6.50
2019-03-12T14:45:49.374Z,6.50
2019-03-12T14:48:52.534Z,6.50
2019-03-12T14:51:27.271Z,6.40
2019-03-12T14:53:58.770Z,6.40
2019-03-12T14:56:28.877Z,6.50
2019-03-12T14:58:57.866Z,6.40
2019-03-12T15:01:26.445Z,6.20
2019-03-12T15:03:54.972Z,6.10
2019-03-12T15:06:23.473Z,6.10
2019-03-12T15:08:52.002Z,6.00
2019-03-12T15:11:20.470Z,6.00
2019-03-12T15:13:48.940Z,6.00
2019-03-12T15:16:17.375Z,6.00
2019-03-12T15:18:46.205Z,6.10
2019-03-12T15:21:14.670Z,6.10
2019-03-12T15:23:43.227Z,6.00
2019-03-12T15:26:11.673Z,6.00
2019-03-12T15:28:40.222Z,5.90
2019-03-12T15:31:08.659Z,5.80
2019-03-12T15:33:37.118Z,5.80
2019-03-12T15:36:05.666Z,5.70
2019-03-12T15:38:34.104Z,5.70
2019-03-12T15:41:02.530Z,5.60
2019-03-12T15:43:31.007Z,5.60
2019-03-12T15:45:59.435Z,5.50
2019-03-12T15:48:27.960Z,5.50
2019-03-12T15:50:56.476Z,5.30
2019-03-12T15:53:24.946Z,5.30
2019-03-12T15:55:55.673Z,5.40
2019-03-12T15:58:23.568Z,5.40
2019-03-12T16:00:52.020Z,5.40
2019-03-12T16:03:20.454Z,5.40
2019-03-12T16:05:48.986Z,5.40
2019-03-12T16:08:17.438Z,5.40
2019-03-12T16:10:57.383Z,5.40
2019-03-12T16:13:16.038Z,5.40
2019-03-12T16:15:44.493Z,5.40
2019-03-12T16:18:14.538Z,5.40
2019-03-12T16:20:43.271Z,5.40
2019-03-12T16:23:11.717Z,5.40
2019-03-12T16:25:40.154Z,5.30
2019-03-12T16:28:08.687Z,5.30
2019-03-12T16:30:37.117Z,5.30
2019-03-12T16:33:05.561Z,5.30
2019-03-12T16:35:34.082Z,5.30
2019-03-12T16:38:02.511Z,5.30
2019-03-12T16:40:30.975Z,5.30
2019-03-12T16:42:59.401Z,5.30
2019-03-12T16:45:27.861Z,5.30
2019-03-12T16:47:56.293Z,5.20
2019-03-12T16:50:24.750Z,5.20
2019-03-12T16:52:53.181Z,5.20
2019-03-12T16:55:21.647Z,5.20
2019-03-12T16:57:50.077Z,5.20
2019-03-12T17:00:19.746Z,5.10
2019-03-12T17:02:48.263Z,5.10
2019-03-12T17:05:16.727Z,5.00
2019-03-12T17:07:45.311Z,4.90
2019-03-12T17:10:17.912Z,4.90
2019-03-12T17:12:46.406Z,4.90
2019-03-12T17:15:20.049Z,4.80
2019-03-12T17:17:48.582Z,4.80
2019-03-12T17:20:17.674Z,4.80
2019-03-12T17:22:46.112Z,4.80
2019-03-12T17:25:14.700Z,4.90
2019-03-12T17:27:43.138Z,4.90
2019-03-12T17:30:21.826Z,4.90
2019-03-12T17:32:50.422Z,5.00
2019-03-12T17:35:36.382Z,4.90
2019-03-12T17:38:05.011Z,5.00
2019-03-12T17:40:33.490Z,4.90
2019-03-12T17:43:01.933Z,4.90
2019-03-12T17:45:30.475Z,4.80
2019-03-12T17:47:58.949Z,4.70
2019-03-12T17:50:27.456Z,4.70
2019-03-12T17:52:55.983Z,4.60
2019-03-12T17:55:24.594Z,4.60
2019-03-12T17:57:53.054Z,4.50
2019-03-12T18:00:24.191Z,4.50
2019-03-12T18:02:52.702Z,4.40
2019-03-12T18:05:21.404Z,4.40
2019-03-12T18:07:49.852Z,4.50
2019-03-12T18:10:18.722Z,4.40
2019-03-12T18:12:47.236Z,4.40
2019-03-12T18:15:20.326Z,4.40
2019-03-12T18:17:48.949Z,4.40
2019-03-12T18:20:23.941Z,4.50
2019-03-12T18:22:52.407Z,4.40
2019-03-12T18:25:35.237Z,4.40
2019-03-12T18:28:03.874Z,4.50
2019-03-12T18:30:32.371Z,4.40
2019-03-12T18:33:00.825Z,4.40
2019-03-12T18:35:29.331Z,4.40
2019-03-12T18:37:57.785Z,4.50
2019-03-12T18:40:28.446Z,4.60
2019-03-12T18:42:56.981Z,4.60
2019-03-12T18:45:27.710Z,4.60
2019-03-12T18:47:56.166Z,4.60
2019-03-12T18:50:24.736Z,4.50
2019-03-12T18:52:53.165Z,4.60
2019-03-12T18:55:33.526Z,4.60
2019-03-12T18:58:04.019Z,4.60
2019-03-12T19:00:32.958Z,4.60
2019-03-12T19:03:01.407Z,4.60
2019-03-12T19:05:29.863Z,4.70
2019-03-12T19:07:58.366Z,4.70
2019-03-12T19:10:26.844Z,4.70
2019-03-12T19:12:55.338Z,4.60
2019-03-12T19:15:23.930Z,4.60
2019-03-12T19:17:52.372Z,4.60
2019-03-12T19:20:21.213Z,4.60
2019-03-12T19:22:49.649Z,4.70
2019-03-12T19:25:29.878Z,4.70
2019-03-12T19:28:00.192Z,4.70
2019-03-12T19:30:28.557Z,4.70
2019-03-12T19:33:04.418Z,4.60
2019-03-12T19:35:33.331Z,4.50
2019-03-12T19:38:03.229Z,4.40
2019-03-12T19:40:42.500Z,4.30
2019-03-12T19:43:11.201Z,4.20
2019-03-12T19:45:39.711Z,4.00
2019-03-12T19:48:08.251Z,4.00
2019-03-12T19:50:36.894Z,3.90
2019-03-12T19:53:05.657Z,3.90
2019-03-12T19:55:36.735Z,3.90
2019-03-12T19:58:05.365Z,3.80
2019-03-12T20:00:34.639Z,3.90
2019-03-12T20:03:10.769Z,3.90
2019-03-12T20:05:33.446Z,3.90
2019-03-12T20:08:02.145Z,3.90
2019-03-12T20:10:42.734Z,3.90
2019-03-12T20:13:14.293Z,3.90
2019-03-12T20:16:11.237Z,4.00
2019-03-12T20:19:14.960Z,4.00
2019-03-12T20:22:21.429Z,4.00
2019-03-12T20:25:12.624Z,4.10
2019-03-12T20:28:02.161Z,4.10
2019-03-12T20:30:45.284Z,4.20
2019-03-12T20:33:33.346Z,4.40
2019-03-12T20:36:21.570Z,4.50
2019-03-12T20:39:26.653Z,4.50
2019-03-12T20:42:24.030Z,4.70
2019-03-12T20:45:12.044Z,4.70
2019-03-12T20:48:16.878Z,4.70
2019-03-12T20:51:22.121Z,4.70
2019-03-12T20:54:02.869Z,4.60
2019-03-12T20:56:51.777Z,4.60
2019-03-12T20:59:56.553Z,4.50
2019-03-12T21:02:36.720Z,4.50
2019-03-12T21:05:41.763Z,4.50
2019-03-12T21:08:28.384Z,4.50
2019-03-12T21:11:33.448Z,4.60
2019-03-12T21:14:30.955Z,4.50
2019-03-12T21:17:17.584Z,4.50
2019-03-12T21:20:08.440Z,4.50
2019-03-12T21:22:47.595Z,4.50
2019-03-12T21:25:33.505Z,4.50
2019-03-12T21:28:23.321Z,4.50
2019-03-12T21:30:51.777Z,4.40
2019-03-12T21:33:20.250Z,4.50
2019-03-12T21:35:48.766Z,4.50
2019-03-12T21:38:17.233Z,4.60
2019-03-12T21:40:45.695Z,4.60
2019-03-12T21:43:14.146Z,4.70
2019-03-12T21:45:42.614Z,4.70
2019-03-12T21:48:11.145Z,4.70
2019-03-12T21:50:39.671Z,4.80
2019-03-12T21:53:08.354Z,4.80
2019-03-12T21:55:37.959Z,4.90
2019-03-12T21:58:06.666Z,4.90
2019-03-12T22:00:35.153Z,4.90
2019-03-12T22:03:03.585Z,4.90
2019-03-12T22:05:32.091Z,4.90
2019-03-12T22:08:00.901Z,4.80
2019-03-12T22:10:29.338Z,4.80
2019-03-12T22:12:57.787Z,4.90
2019-03-12T22:15:29.414Z,4.90
2019-03-12T22:17:56.449Z,4.90
2019-03-12T22:20:24.880Z,4.90
2019-03-12T22:22:57.676Z,4.80
2019-03-12T22:25:26.208Z,4.80
2019-03-12T22:27:54.670Z,4.80
2019-03-12T22:30:25.217Z,4.80
2019-03-12T22:32:53.736Z,4.80
2019-03-12T22:35:22.249Z,4.80
2019-03-12T22:37:50.778Z,4.70
2019-03-12T22:40:19.211Z,4.70
2019-03-12T22:42:47.703Z,4.70
2019-03-12T22:45:16.149Z,4.80
2019-03-12T22:47:44.581Z,4.80
2019-03-12T22:50:16.778Z,4.80
2019-03-12T22:52:45.311Z,4.80
2019-03-12T22:55:14.307Z,4.90
2019-03-12T22:57:42.839Z,4.90
2019-03-12T23:00:14.509Z,4.90
2019-03-12T23:02:43.040Z,4.90
2019-03-12T23:05:12.210Z,4.80
2019-03-12T23:07:40.699Z,4.80
2019-03-12T23:10:14.623Z,4.90
2019-03-12T23:12:43.809Z,5.00
2019-03-12T23:15:17.483Z,5.00
2019-03-12T23:17:45.995Z,5.10
2019-03-12T23:20:17.653Z,5.20
2019-03-12T23:22:46.135Z,5.30
2019-03-12T23:25:14.761Z,5.20
2019-03-12T23:27:43.323Z,5.20
2019-03-12T23:30:14.572Z,5.20
2019-03-12T23:32:43.253Z,5.30
2019-03-12T23:35:12.020Z,5.30
2019-03-12T23:37:40.451Z,5.30
2019-03-12T23:40:19.046Z,5.20
2019-03-12T23:42:47.493Z,5.30
2019-03-12T23:45:16.703Z,5.20
2019-03-12T23:47:45.802Z,5.20
2019-03-12T23:50:15.775Z,5.20
2019-03-12T23:52:44.393Z,5.30
2019-03-12T23:55:14.764Z,5.40
2019-03-12T23:57:43.399Z,5.40
